Manteo, NC

2:36 AM EDT on May 26, 2015 (GMT -0400)
Yacht Doc, Inc | | Change Station
CLOSE
Current Station
Personal Weather Station
Location: Manteo, NC
Elevation: 8 ft
Nearby Weather Stations

Elev 8 ft 35.90 °N, 75.67 °W | Updated 6 minutes ago

Clear
Clear
71.6 °F
Feels Like 75 °F
N
6.7
Wind Variable Wind from West

Today
High -- | Low -- °F
--% Chance of Precip.
Yesterday
High -- | Low -- °F
Precip. -- in
5:50 AM 8:09 PM
First Quarter, 55% visible
Pressure 30.29 in
Visibility 10.0 miles
Clouds Clear
Heat Index 75 °F
Dew Point 61 °F
Humidity 69%
Rainfall 0.35 in
Snow Depth Not available.
UV 0 out of 12
Pollen 5.60 out of 12
Air Quality Not available.
Flu Activity No Activity
METAR KMQI 260615Z AUTO 20010KT 10SM CLR 22/17 A3029 RMK AO2 T02170173

More Conditions Fewer Conditions

Pressure 30.29 in
Visibility 10.0 miles
Clouds Clear
Heat Index 75 °F
Dew Point 61 °F
Humidity 69%
Rainfall 0.35 in
Snow Depth Not available.
UV 0 out of 12
Pollen 5.60 out of 12
Air Quality Not available.
Flu Activity No Activity
METAR KMQI 260615Z AUTO 20010KT 10SM CLR 22/17 A3029 RMK AO2 T02170173

More Conditions Fewer Conditions

10-Day Weather Forecast

Almanac

Astronomy

May. 26, 2015 Rise Set
Actual Time
Civil Twilight
Nautical Twilight
Astronomical Twilight
Moon
Length of Visible Light
Length of Day
Tomorrow will be .
, % of the Moon is Illuminated

Today's Extremes

State Highs State Lows

Community

WunderPhotos

Upload Photos

1,824,294 photos uploaded!

WunderBlogs® & News

Nearby

Air Quality

  Air Quality AQ Index Pollutant
Not available.

Snow Depth

Station Depth Elevation

Earthquake Activity

City Distance Mag. Time & Date
Minimum magnitude displayed is 2.5.

Coastal Water Temperatures

Place Temperature

Stations

Nearby Weather Stations

Station Location Temp. Windchill Dew Point Humidity Wind Precip. Elev Updated Type